createdAt,value
2023-01-29T00:00:15.376Z,80.30
2023-01-29T00:03:19.322Z,80.30
2023-01-29T00:06:24.994Z,80.30
2023-01-29T00:09:29.253Z,80.30
2023-01-29T00:12:36.748Z,80.20
2023-01-29T00:15:40.324Z,80.30
2023-01-29T00:18:45.912Z,80.30
2023-01-29T00:21:49.494Z,80.20
2023-01-29T00:24:55.139Z,80.30
2023-01-29T00:28:00.889Z,80.30
2023-01-29T00:31:10.160Z,80.30
2023-01-29T00:34:13.780Z,80.30
2023-01-29T00:37:19.314Z,80.20
2023-01-29T00:40:24.351Z,80.30
2023-01-29T00:43:45.496Z,80.30
2023-01-29T00:46:49.140Z,80.30
2023-01-29T00:49:54.789Z,80.30
2023-01-29T00:52:58.971Z,80.30
2023-01-29T00:56:04.606Z,80.30
2023-01-29T00:59:10.143Z,80.30
2023-01-29T01:02:29.238Z,80.30
2023-01-29T01:05:33.685Z,80.30
2023-01-29T01:08:52.467Z,80.30
2023-01-29T01:11:56.860Z,80.30
2023-01-29T01:15:04.407Z,80.20
2023-01-29T01:18:08.251Z,80.30
2023-01-29T01:21:13.993Z,80.30
2023-01-29T01:24:17.637Z,80.30
2023-01-29T01:27:23.214Z,80.30
2023-01-29T01:30:28.947Z,80.30
2023-01-29T01:33:34.555Z,80.30
2023-01-29T01:36:38.135Z,80.30
2023-01-29T01:39:49.930Z,80.30
2023-01-29T01:42:55.031Z,80.40
2023-01-29T01:46:02.564Z,80.40
2023-01-29T01:49:08.678Z,80.40
2023-01-29T01:52:15.815Z,80.40
2023-01-29T01:55:22.625Z,80.40
2023-01-29T01:58:29.636Z,80.30
2023-01-29T02:01:35.396Z,80.40
2023-01-29T02:05:00.249Z,80.30
2023-01-29T02:08:16.981Z,80.30
2023-01-29T02:11:22.720Z,80.40
2023-01-29T02:14:27.297Z,80.30
2023-01-29T02:17:34.875Z,80.30
2023-01-29T02:20:39.767Z,80.40
2023-01-29T02:23:57.029Z,80.40
2023-01-29T02:27:06.656Z,80.30
2023-01-29T02:30:17.070Z,80.40
2023-01-29T02:33:25.204Z,80.40
2023-01-29T02:36:36.710Z,80.40
2023-01-29T02:39:43.961Z,80.40
2023-01-29T02:42:52.803Z,80.30
2023-01-29T02:46:02.018Z,80.40
2023-01-29T02:49:11.466Z,80.30
2023-01-29T02:52:18.196Z,80.40
2023-01-29T02:55:26.240Z,80.40
2023-01-29T02:58:31.610Z,80.40
2023-01-29T03:01:42.411Z,80.30
2023-01-29T03:04:47.711Z,80.40
2023-01-29T03:07:55.267Z,80.30
2023-01-29T03:11:07.695Z,80.40
2023-01-29T03:14:18.272Z,80.40
2023-01-29T03:17:27.223Z,80.40
2023-01-29T03:20:35.607Z,80.40
2023-01-29T03:23:53.864Z,80.40
2023-01-29T03:27:15.967Z,80.40
2023-01-29T03:30:34.780Z,80.40
2023-01-29T03:34:04.957Z,80.40
2023-01-29T03:37:13.263Z,80.40
2023-01-29T03:40:19.338Z,80.40
2023-01-29T03:43:29.335Z,80.40
2023-01-29T03:46:39.465Z,80.40
2023-01-29T03:49:52.368Z,80.40
2023-01-29T03:53:03.441Z,80.40
2023-01-29T03:56:09.071Z,80.40
2023-01-29T03:59:19.989Z,80.40
2023-01-29T04:02:43.863Z,80.40
2023-01-29T04:06:09.219Z,80.50
2023-01-29T04:09:21.517Z,80.50
2023-01-29T04:12:30.189Z,80.40
2023-01-29T04:15:36.585Z,80.40
2023-01-29T04:18:42.797Z,80.40
2023-01-29T04:21:50.552Z,80.50
2023-01-29T04:25:01.755Z,80.40
2023-01-29T04:28:09.243Z,80.50
2023-01-29T04:31:16.049Z,81.00
2023-01-29T04:34:23.194Z,80.40
2023-01-29T04:37:36.717Z,80.40
2023-01-29T04:40:44.716Z,80.50
2023-01-29T04:43:55.098Z,80.50
2023-01-29T04:47:03.050Z,80.50
2023-01-29T04:50:14.987Z,80.50
2023-01-29T04:53:25.312Z,80.50
2023-01-29T04:56:34.765Z,80.50
2023-01-29T04:59:42.327Z,80.50
2023-01-29T05:02:48.494Z,80.50
2023-01-29T05:05:52.594Z,80.50
2023-01-29T05:09:00.907Z,80.50
2023-01-29T05:12:05.539Z,80.40
2023-01-29T05:15:13.747Z,80.50
2023-01-29T05:18:17.518Z,80.60
2023-01-29T05:21:23.599Z,80.60
2023-01-29T05:24:29.144Z,80.50
2023-01-29T05:27:49.834Z,80.50
2023-01-29T05:30:54.385Z,80.50
2023-01-29T05:34:00.055Z,80.50
2023-01-29T05:37:03.680Z,80.50
2023-01-29T05:40:12.189Z,80.50
2023-01-29T05:43:16.964Z,80.50
2023-01-29T05:46:22.679Z,80.60
2023-01-29T05:49:26.277Z,80.50
2023-01-29T05:52:31.897Z,80.50
2023-01-29T05:55:37.540Z,80.50
2023-01-29T05:58:43.136Z,80.50
2023-01-29T06:01:46.779Z,80.50
2023-01-29T06:04:52.553Z,80.50
2023-01-29T06:07:56.926Z,80.50
2023-01-29T06:11:04.471Z,80.50
2023-01-29T06:14:08.032Z,80.50
2023-01-29T06:17:13.657Z,80.50
2023-01-29T06:20:17.721Z,80.60
2023-01-29T06:23:23.734Z,80.60
2023-01-29T06:26:29.308Z,80.50
2023-01-29T06:29:35.922Z,80.50
2023-01-29T06:32:39.552Z,80.60
2023-01-29T06:35:45.276Z,80.60
2023-01-29T06:38:49.123Z,80.60
2023-01-29T06:41:56.691Z,80.60
2023-01-29T06:45:00.285Z,80.60
2023-01-29T06:48:06.162Z,80.60
2023-01-29T06:51:10.363Z,80.60
2023-01-29T06:54:16.014Z,80.60
2023-01-29T06:57:21.506Z,80.60
2023-01-29T07:00:27.099Z,80.60
2023-01-29T07:03:30.668Z,81.20
2023-01-29T07:06:36.372Z,80.60
2023-01-29T07:09:39.965Z,80.60
2023-01-29T07:12:47.535Z,80.60
2023-01-29T07:15:51.109Z,80.70
2023-01-29T07:18:56.785Z,80.60
2023-01-29T07:22:01.816Z,80.60
2023-01-29T07:25:08.375Z,80.70
2023-01-29T07:28:13.896Z,80.60
2023-01-29T07:31:19.556Z,80.60
2023-01-29T07:34:23.181Z,80.60
2023-01-29T07:37:28.974Z,80.70
2023-01-29T07:40:32.584Z,80.50
2023-01-29T07:43:40.087Z,80.60
2023-01-29T07:46:44.058Z,80.60
2023-01-29T07:49:49.698Z,80.60
2023-01-29T07:52:53.603Z,80.60
2023-01-29T07:55:59.232Z,80.60
2023-01-29T07:59:04.905Z,80.70
2023-01-29T08:02:10.731Z,80.60
2023-01-29T08:05:14.381Z,80.60
2023-01-29T08:08:20.648Z,80.60
2023-01-29T08:11:24.419Z,80.70
2023-01-29T08:14:32.012Z,80.60
2023-01-29T08:17:43.330Z,80.60
2023-01-29T08:20:54.795Z,80.60
2023-01-29T08:23:58.584Z,80.60
2023-01-29T08:27:04.384Z,80.60
2023-01-29T08:30:10.992Z,80.60
2023-01-29T08:33:19.447Z,80.60
2023-01-29T08:36:25.253Z,80.70
2023-01-29T08:39:32.160Z,80.60
2023-01-29T08:42:36.206Z,80.70
2023-01-29T08:45:44.724Z,80.60
2023-01-29T08:48:48.297Z,80.70
2023-01-29T08:51:56.171Z,80.60
2023-01-29T08:54:59.764Z,80.60
2023-01-29T08:58:05.676Z,80.60
2023-01-29T09:01:11.883Z,80.70
2023-01-29T09:04:17.454Z,80.70
2023-01-29T09:07:21.718Z,80.70
2023-01-29T09:10:27.302Z,80.80
2023-01-29T09:13:30.952Z,80.70
2023-01-29T09:16:38.459Z,80.70
2023-01-29T09:19:42.088Z,80.70
2023-01-29T09:22:48.788Z,80.70
2023-01-29T09:25:52.344Z,80.70
2023-01-29T09:28:57.931Z,80.70
2023-01-29T09:32:03.647Z,80.70
2023-01-29T09:35:09.969Z,80.70
2023-01-29T09:38:13.757Z,80.80
2023-01-29T09:41:27.603Z,80.70
2023-01-29T09:44:36.639Z,80.70
2023-01-29T09:47:44.186Z,80.70
2023-01-29T09:50:49.336Z,80.70
2023-01-29T09:53:57.474Z,80.70
2023-01-29T09:57:02.000Z,80.70
2023-01-29T10:00:08.751Z,80.70
2023-01-29T10:03:24.297Z,80.70
2023-01-29T10:06:36.118Z,80.70
2023-01-29T10:09:54.735Z,80.70
2023-01-29T10:13:04.166Z,80.70
2023-01-29T10:16:18.035Z,80.70
2023-01-29T10:19:38.734Z,80.70
2023-01-29T10:22:57.958Z,80.70
2023-01-29T10:26:04.145Z,80.70
2023-01-29T10:29:08.801Z,80.70
2023-01-29T10:32:16.827Z,80.80
2023-01-29T10:35:24.090Z,80.70
2023-01-29T10:38:36.657Z,80.70
2023-01-29T10:41:46.114Z,80.80
2023-01-29T10:44:57.127Z,80.80
2023-01-29T10:48:09.466Z,80.80
2023-01-29T10:51:23.638Z,80.70
2023-01-29T10:54:46.885Z,80.70
2023-01-29T10:57:59.667Z,80.70
2023-01-29T11:01:03.353Z,80.80
2023-01-29T11:04:12.799Z,80.80
2023-01-29T11:07:18.359Z,80.70
2023-01-29T11:10:26.433Z,80.70
2023-01-29T11:13:33.038Z,80.80
2023-01-29T11:16:46.362Z,80.70
2023-01-29T11:19:51.372Z,80.70
2023-01-29T11:22:57.475Z,80.70
2023-01-29T11:26:04.294Z,80.70
2023-01-29T11:29:30.754Z,80.70
2023-01-29T11:32:35.785Z,80.70
2023-01-29T11:35:41.362Z,80.80
2023-01-29T11:38:44.975Z,80.70
2023-01-29T11:41:55.332Z,80.70
2023-01-29T11:44:58.925Z,80.70
2023-01-29T11:48:04.651Z,80.80
2023-01-29T11:51:09.708Z,80.80
2023-01-29T11:54:19.042Z,80.80
2023-01-29T11:57:29.584Z,80.80
2023-01-29T12:00:36.356Z,80.70
2023-01-29T12:03:43.096Z,80.70
2023-01-29T12:06:51.402Z,80.70
2023-01-29T12:09:56.341Z,80.70
2023-01-29T12:13:20.185Z,80.80
2023-01-29T12:16:26.609Z,80.70
2023-01-29T12:19:36.183Z,80.70
2023-01-29T12:22:42.495Z,80.70
2023-01-29T12:25:51.755Z,80.70
2023-01-29T12:29:05.618Z,80.70
2023-01-29T12:32:16.057Z,80.70
2023-01-29T12:35:21.688Z,80.70
2023-01-29T12:38:27.247Z,80.70
2023-01-29T12:41:34.051Z,80.70
2023-01-29T12:44:45.149Z,80.70
2023-01-29T12:47:50.007Z,81.30
2023-01-29T12:50:57.217Z,80.70
2023-01-29T12:54:02.983Z,80.70
2023-01-29T12:57:11.761Z,80.70
2023-01-29T13:00:19.727Z,80.60
2023-01-29T13:03:27.662Z,80.70
2023-01-29T13:06:33.174Z,80.60
2023-01-29T13:09:41.060Z,80.60
2023-01-29T13:12:50.352Z,80.70
2023-01-29T13:15:59.366Z,80.70
2023-01-29T13:19:04.271Z,81.30
2023-01-29T13:22:16.566Z,80.70
2023-01-29T13:25:20.677Z,80.70
2023-01-29T13:28:27.947Z,80.70
2023-01-29T13:31:34.896Z,80.70
2023-01-29T13:34:45.424Z,80.70
2023-01-29T13:37:50.085Z,80.70
2023-01-29T13:40:57.650Z,80.70
2023-01-29T13:44:01.341Z,80.70
2023-01-29T13:47:10.380Z,80.70
2023-01-29T13:50:19.750Z,80.70
2023-01-29T13:53:26.562Z,80.70
2023-01-29T13:56:30.993Z,80.70
2023-01-29T13:59:53.320Z,80.70
2023-01-29T14:03:12.420Z,80.70
2023-01-29T14:06:32.842Z,80.70
2023-01-29T14:09:57.520Z,80.70
2023-01-29T14:13:23.897Z,80.70
2023-01-29T14:16:34.822Z,80.70
2023-01-29T14:19:47.716Z,80.70
2023-01-29T14:22:54.646Z,80.80
2023-01-29T14:26:00.998Z,80.70
2023-01-29T14:29:06.660Z,81.30
2023-01-29T14:32:17.157Z,80.70
2023-01-29T14:35:21.890Z,80.70
2023-01-29T14:38:29.117Z,80.80
2023-01-29T14:41:34.079Z,80.70
2023-01-29T14:44:54.753Z,80.70
2023-01-29T14:48:01.752Z,80.70
2023-01-29T14:51:10.473Z,80.70
2023-01-29T14:54:18.336Z,80.80
2023-01-29T14:57:24.917Z,80.80
2023-01-29T15:00:29.616Z,80.80
2023-01-29T15:03:42.339Z,80.80
2023-01-29T15:06:47.338Z,80.80
2023-01-29T15:10:01.334Z,80.80
2023-01-29T15:13:21.496Z,80.80
2023-01-29T15:16:29.494Z,80.90
2023-01-29T15:19:36.561Z,80.80
2023-01-29T15:22:44.156Z,80.80
2023-01-29T15:25:49.669Z,80.90
2023-01-29T15:29:03.509Z,80.90
2023-01-29T15:32:08.047Z,80.80
2023-01-29T15:35:20.790Z,80.80
2023-01-29T15:38:26.249Z,80.80
2023-01-29T15:41:31.804Z,80.80
2023-01-29T15:44:35.912Z,80.80
2023-01-29T15:47:41.569Z,80.90
2023-01-29T15:50:47.524Z,80.80
2023-01-29T15:53:54.273Z,80.80
2023-01-29T15:56:58.890Z,80.80
2023-01-29T16:00:05.987Z,80.80
2023-01-29T16:03:17.592Z,80.80
2023-01-29T16:06:25.601Z,80.90
2023-01-29T16:09:30.255Z,80.90
2023-01-29T16:12:36.242Z,80.90
2023-01-29T16:15:40.569Z,80.90
2023-01-29T16:18:59.485Z,80.90
2023-01-29T16:22:07.568Z,80.90
2023-01-29T16:25:14.821Z,80.80
2023-01-29T16:28:18.879Z,80.90
2023-01-29T16:31:26.542Z,80.90
2023-01-29T16:34:32.104Z,80.90
2023-01-29T16:37:40.229Z,80.90
2023-01-29T16:41:03.794Z,80.90
2023-01-29T16:44:32.227Z,80.90
2023-01-29T16:47:36.473Z,80.90
2023-01-29T16:50:54.262Z,80.80
2023-01-29T16:54:07.891Z,80.90
2023-01-29T16:57:15.305Z,80.80
2023-01-29T17:00:21.673Z,80.80
2023-01-29T17:03:28.557Z,80.80
2023-01-29T17:06:32.848Z,80.80
2023-01-29T17:09:40.751Z,80.90
2023-01-29T17:12:49.503Z,80.90
2023-01-29T17:15:55.254Z,80.80
2023-01-29T17:18:58.836Z,80.80
2023-01-29T17:22:07.880Z,80.90
2023-01-29T17:25:14.447Z,80.90
2023-01-29T17:28:20.135Z,80.90
2023-01-29T17:31:23.789Z,80.80
2023-01-29T17:34:29.729Z,80.90
2023-01-29T17:37:33.597Z,80.90
2023-01-29T17:40:43.131Z,80.80
2023-01-29T17:43:46.752Z,80.90
2023-01-29T17:46:52.341Z,80.90
2023-01-29T17:49:57.202Z,80.80
2023-01-29T17:53:03.119Z,80.90
2023-01-29T17:56:12.261Z,80.90
2023-01-29T17:59:18.449Z,80.90
2023-01-29T18:02:28.814Z,80.90
2023-01-29T18:05:35.413Z,80.90
2023-01-29T18:08:39.694Z,80.90
2023-01-29T18:11:47.301Z,80.90
2023-01-29T18:14:50.847Z,80.90
2023-01-29T18:17:56.561Z,80.90
2023-01-29T18:21:00.166Z,80.90
2023-01-29T18:24:06.272Z,81.00
2023-01-29T18:27:12.583Z,81.00
2023-01-29T18:30:18.536Z,81.00
2023-01-29T18:33:23.512Z,80.90
2023-01-29T18:36:29.237Z,81.00
2023-01-29T18:39:32.823Z,81.00
2023-01-29T18:42:40.591Z,81.00
2023-01-29T18:45:44.251Z,81.00
2023-01-29T18:48:49.872Z,81.00
2023-01-29T18:51:53.640Z,81.10
2023-01-29T18:55:00.452Z,81.10
2023-01-29T18:58:33.809Z,81.10
2023-01-29T19:01:34.358Z,81.40
2023-01-29T19:04:37.905Z,81.00
2023-01-29T19:07:43.563Z,81.10
2023-01-29T19:10:47.262Z,81.10
2023-01-29T19:13:54.752Z,81.10
2023-01-29T19:17:00.001Z,81.00
2023-01-29T19:20:05.785Z,81.00
2023-01-29T19:23:09.652Z,81.00
2023-01-29T19:26:15.547Z,81.10
2023-01-29T19:29:21.117Z,81.10
2023-01-29T19:32:28.182Z,81.00
2023-01-29T19:35:32.896Z,81.10
2023-01-29T19:38:39.437Z,81.10
2023-01-29T19:41:43.153Z,81.10
2023-01-29T19:44:51.499Z,81.10
2023-01-29T19:47:55.709Z,81.10
2023-01-29T19:51:03.605Z,81.10
2023-01-29T19:54:07.119Z,81.10
2023-01-29T19:57:12.715Z,81.80
2023-01-29T20:00:19.047Z,81.20
2023-01-29T20:03:26.166Z,81.20
2023-01-29T20:06:31.031Z,81.20
2023-01-29T20:09:36.708Z,81.10
2023-01-29T20:12:40.307Z,81.10
2023-01-29T20:15:48.632Z,81.10
2023-01-29T20:18:52.418Z,81.10
2023-01-29T20:21:58.063Z,81.10
2023-01-29T20:25:01.681Z,81.80
2023-01-29T20:28:07.970Z,81.20
2023-01-29T20:31:13.526Z,81.30
2023-01-29T20:34:19.168Z,81.20
2023-01-29T20:37:22.886Z,81.20
2023-01-29T20:40:29.142Z,81.20
2023-01-29T20:43:32.748Z,81.20
2023-01-29T20:46:40.277Z,81.10
2023-01-29T20:49:44.211Z,81.10
2023-01-29T20:52:49.986Z,81.20
2023-01-29T20:55:53.711Z,81.20
2023-01-29T20:58:59.382Z,81.20
2023-01-29T21:02:04.899Z,81.20
2023-01-29T21:05:10.834Z,81.20
2023-01-29T21:08:14.441Z,81.20
2023-01-29T21:11:20.364Z,81.20
2023-01-29T21:14:23.994Z,81.20
2023-01-29T21:17:31.493Z,81.20
2023-01-29T21:20:35.082Z,81.20
2023-01-29T21:23:40.731Z,81.20
2023-01-29T21:26:44.314Z,81.20
2023-01-29T21:29:49.961Z,81.20
2023-01-29T21:32:55.463Z,81.20
2023-01-29T21:36:04.000Z,81.20
2023-01-29T21:39:15.924Z,81.30
2023-01-29T21:42:34.671Z,81.30
2023-01-29T21:45:38.722Z,81.30
2023-01-29T21:48:46.270Z,81.30
2023-01-29T21:51:49.928Z,81.30
2023-01-29T21:54:55.609Z,81.30
2023-01-29T21:57:59.682Z,81.40
2023-01-29T22:01:18.100Z,81.30
2023-01-29T22:04:32.295Z,81.30
2023-01-29T22:07:37.888Z,81.30
2023-01-29T22:10:41.557Z,81.30
2023-01-29T22:13:47.263Z,81.30
2023-01-29T22:16:50.891Z,81.30
2023-01-29T22:19:58.437Z,81.30
2023-01-29T22:23:01.996Z,81.30
2023-01-29T22:26:09.282Z,81.30
2023-01-29T22:29:13.080Z,81.40
2023-01-29T22:32:18.707Z,81.40
2023-01-29T22:35:24.281Z,81.40
2023-01-29T22:38:29.963Z,81.40
2023-01-29T22:41:33.631Z,81.40
2023-01-29T22:44:39.260Z,81.50
2023-01-29T22:47:42.847Z,81.40
2023-01-29T22:51:09.405Z,81.40
2023-01-29T22:54:14.838Z,81.40
2023-01-29T22:57:20.688Z,81.50
2023-01-29T23:00:24.545Z,81.50
2023-01-29T23:03:30.272Z,81.50
2023-01-29T23:09:41.701Z,81.00
2023-01-29T23:12:45.306Z,81.50
2023-01-29T23:15:58.791Z,81.50
2023-01-29T23:19:04.538Z,81.50
2023-01-29T23:22:08.144Z,81.50
2023-01-29T23:25:15.953Z,81.50
2023-01-29T23:28:17.616Z,81.50
2023-01-29T23:31:23.245Z,81.60
2023-01-29T23:34:26.902Z,81.60
2023-01-29T23:37:32.494Z,81.60
2023-01-29T23:40:38.018Z,81.60
2023-01-29T23:43:43.578Z,81.60
2023-01-29T23:46:47.223Z,81.70
2023-01-29T23:49:52.855Z,81.70
2023-01-29T23:52:56.444Z,81.70
2023-01-29T23:56:05.335Z,81.70
2023-01-29T23:59:08.966Z,81.70
